createdAt,value
2018-11-23T00:02:03.748Z,-1.50
2018-11-23T00:04:31.894Z,-1.50
2018-11-23T00:06:59.984Z,-1.50
2018-11-23T00:09:28.182Z,-1.60
2018-11-23T00:11:56.275Z,-1.60
2018-11-23T00:14:24.381Z,-1.60
2018-11-23T00:16:52.465Z,-1.60
2018-11-23T00:19:20.544Z,-1.60
2018-11-23T00:21:48.710Z,-1.60
2018-11-23T00:24:16.840Z,-1.70
2018-11-23T00:26:44.914Z,-1.70
2018-11-23T00:29:12.997Z,-1.70
2018-11-23T00:31:41.082Z,-1.70
2018-11-23T00:34:09.174Z,-1.70
2018-11-23T00:36:37.269Z,-1.70
2018-11-23T00:39:06.394Z,-1.70
2018-11-23T00:41:34.609Z,-1.70
2018-11-23T00:44:02.699Z,-1.70
2018-11-23T00:46:30.772Z,-1.70
2018-11-23T00:48:58.901Z,-1.70
2018-11-23T00:51:27.094Z,-1.70
2018-11-23T00:53:55.261Z,-1.60
2018-11-23T00:56:23.326Z,-1.70
2018-11-23T00:58:51.384Z,-1.70
2018-11-23T01:01:19.497Z,-1.70
2018-11-23T01:03:47.602Z,-1.70
2018-11-23T01:06:15.802Z,-1.70
2018-11-23T01:08:43.900Z,-1.70
2018-11-23T01:11:11.994Z,-1.70
2018-11-23T01:13:40.082Z,-1.70
2018-11-23T01:16:08.137Z,-1.80
2018-11-23T01:18:36.217Z,-1.80
2018-11-23T01:21:04.354Z,-1.80
2018-11-23T01:23:32.584Z,-1.80
2018-11-23T01:26:00.770Z,-1.80
2018-11-23T01:28:28.893Z,-1.80
2018-11-23T01:30:56.993Z,-1.90
2018-11-23T01:33:25.144Z,-1.90
2018-11-23T01:35:53.411Z,-1.90
2018-11-23T01:38:21.512Z,-1.90
2018-11-23T01:40:49.703Z,-1.90
2018-11-23T01:43:17.808Z,-1.90
2018-11-23T01:45:45.980Z,-1.90
2018-11-23T01:48:14.062Z,-1.90
2018-11-23T01:50:42.246Z,-1.90
2018-11-23T01:53:10.458Z,-1.90
2018-11-23T01:55:38.614Z,-2.00
2018-11-23T01:58:06.709Z,-2.00
2018-11-23T02:00:34.837Z,-2.00
2018-11-23T02:03:02.974Z,-2.10
2018-11-23T02:05:31.070Z,-2.00
2018-11-23T02:07:59.150Z,-2.00
2018-11-23T02:10:27.337Z,-2.00
2018-11-23T02:12:55.502Z,-2.00
2018-11-23T02:15:23.767Z,-2.10
2018-11-23T02:17:52.293Z,-2.10
2018-11-23T02:20:21.178Z,-2.10
2018-11-23T02:22:49.313Z,-2.10
2018-11-23T02:25:17.438Z,-2.10
2018-11-23T02:27:45.533Z,-2.10
2018-11-23T02:30:16.756Z,-2.10
2018-11-23T02:32:44.961Z,-2.10
2018-11-23T02:35:13.738Z,-2.00
2018-11-23T02:37:41.800Z,-2.10
2018-11-23T02:40:10.981Z,-2.10
2018-11-23T02:42:39.470Z,-2.00
2018-11-23T02:45:09.483Z,-2.00
2018-11-23T02:47:37.818Z,-2.00
2018-11-23T02:50:06.197Z,-2.00
2018-11-23T02:52:34.326Z,-2.00
2018-11-23T02:55:02.406Z,-2.10
2018-11-23T02:57:30.521Z,-2.00
2018-11-23T02:59:58.708Z,-2.00
2018-11-23T03:02:26.855Z,-2.10
2018-11-23T03:04:54.950Z,-2.10
2018-11-23T03:07:23.102Z,-2.10
2018-11-23T03:09:51.207Z,-2.10
2018-11-23T03:12:19.329Z,-2.10
2018-11-23T03:14:47.406Z,-2.20
2018-11-23T03:17:15.665Z,-2.20
2018-11-23T03:19:43.750Z,-2.20
2018-11-23T03:22:11.849Z,-2.20
2018-11-23T03:24:40.025Z,-2.10
2018-11-23T03:27:08.182Z,-2.10
2018-11-23T03:29:36.261Z,-2.10
2018-11-23T03:32:04.613Z,-2.20
2018-11-23T03:34:32.723Z,-2.30
2018-11-23T03:37:00.872Z,-2.30
2018-11-23T03:39:34.065Z,-2.30
2018-11-23T03:41:57.294Z,-2.20
2018-11-23T03:44:25.438Z,-2.30
2018-11-23T03:46:53.737Z,-2.30
2018-11-23T03:49:21.908Z,-2.30
2018-11-23T03:51:50.038Z,-2.30
2018-11-23T03:54:18.172Z,-2.40
2018-11-23T03:56:46.323Z,-2.40
2018-11-23T03:59:14.444Z,-2.40
2018-11-23T04:01:42.561Z,-2.40
2018-11-23T04:04:10.659Z,-2.40
2018-11-23T04:06:38.804Z,-2.40
2018-11-23T04:09:08.118Z,-2.40
2018-11-23T04:11:36.268Z,-2.40
2018-11-23T04:14:04.570Z,-2.40
2018-11-23T04:16:32.687Z,-2.40
2018-11-23T04:19:00.809Z,-2.40
2018-11-23T04:21:29.032Z,-2.40
2018-11-23T04:23:57.202Z,-2.40
2018-11-23T04:26:25.345Z,-2.40
2018-11-23T04:28:53.529Z,-2.40
2018-11-23T04:31:21.667Z,-2.40
2018-11-23T04:33:49.764Z,-2.50
2018-11-23T04:36:17.866Z,-2.50
2018-11-23T04:38:46.170Z,-2.40
2018-11-23T04:41:14.281Z,-2.50
2018-11-23T04:43:42.443Z,-2.50
2018-11-23T04:46:10.640Z,-2.50
2018-11-23T04:48:38.836Z,-2.50
2018-11-23T04:51:07.045Z,-2.50
2018-11-23T04:53:35.254Z,-2.50
2018-11-23T04:56:03.453Z,-2.50
2018-11-23T04:58:31.714Z,-2.50
2018-11-23T05:00:59.871Z,-2.50
2018-11-23T05:03:28.008Z,-2.50
2018-11-23T05:05:56.125Z,-2.50
2018-11-23T05:08:24.512Z,-2.50
2018-11-23T05:10:52.768Z,-2.60
2018-11-23T05:14:55.988Z,-2.50
2018-11-23T05:17:24.175Z,-2.50
2018-11-23T05:19:52.360Z,-2.60
2018-11-23T05:22:20.492Z,-2.60
2018-11-23T05:24:48.629Z,-2.60
2018-11-23T05:27:16.776Z,-2.70
2018-11-23T05:29:45.106Z,-2.60
2018-11-23T05:32:13.228Z,-2.60
2018-11-23T05:34:41.494Z,-2.60
2018-11-23T05:37:09.642Z,-2.60
2018-11-23T05:39:37.778Z,-2.60
2018-11-23T05:42:05.986Z,-2.50
2018-11-23T05:44:34.189Z,-2.50
2018-11-23T05:47:02.320Z,-2.60
2018-11-23T05:49:30.519Z,-2.60
2018-11-23T05:51:58.649Z,-2.60
2018-11-23T05:54:26.770Z,-2.50
2018-11-23T05:56:55.018Z,-2.50
2018-11-23T05:59:23.298Z,-2.50
2018-11-23T06:01:51.728Z,-2.40
2018-11-23T06:04:20.081Z,-2.50
2018-11-23T06:06:48.225Z,-2.50
2018-11-23T06:09:16.488Z,-2.50
2018-11-23T06:11:44.712Z,-2.50
2018-11-23T06:14:12.846Z,-2.50
2018-11-23T06:16:40.977Z,-2.50
2018-11-23T06:19:09.203Z,-2.60
2018-11-23T06:21:37.458Z,-2.60
2018-11-23T06:24:06.176Z,-2.60
2018-11-23T06:26:34.756Z,-2.60
2018-11-23T06:29:02.966Z,-2.70
2018-11-23T06:31:31.265Z,-2.70
2018-11-23T06:33:59.375Z,-2.60
2018-11-23T06:36:27.523Z,-2.60
2018-11-23T06:38:55.697Z,-2.60
2018-11-23T06:41:23.935Z,-2.60
2018-11-23T06:43:52.162Z,-2.70
2018-11-23T06:46:20.339Z,-2.60
2018-11-23T06:48:48.461Z,-2.60
2018-11-23T06:51:16.578Z,-2.50
2018-11-23T06:53:44.752Z,-2.50
2018-11-23T06:56:12.986Z,-2.50
2018-11-23T06:58:41.102Z,-2.50
2018-11-23T07:01:09.298Z,-2.40
2018-11-23T07:03:37.448Z,-2.40
2018-11-23T07:06:05.653Z,-2.40
2018-11-23T07:08:33.821Z,-2.40
2018-11-23T07:11:03.169Z,-2.30
2018-11-23T07:13:32.121Z,-2.30
2018-11-23T07:16:00.491Z,-2.20
2018-11-23T07:18:28.946Z,-2.20
2018-11-23T07:20:57.218Z,-2.20
2018-11-23T07:23:26.439Z,-2.20
2018-11-23T07:25:54.690Z,-2.20
2018-11-23T07:28:22.894Z,-2.10
2018-11-23T07:30:51.056Z,-2.10
2018-11-23T07:33:19.237Z,-2.00
2018-11-23T07:35:47.409Z,-1.90
2018-11-23T07:38:15.590Z,-1.90
2018-11-23T07:40:55.661Z,-1.80
2018-11-23T07:43:23.992Z,-1.80
2018-11-23T07:45:52.105Z,-1.60
2018-11-23T07:48:21.274Z,-1.50
2018-11-23T07:50:49.429Z,-1.50
2018-11-23T07:53:17.608Z,-1.50
2018-11-23T07:55:45.852Z,-1.40
2018-11-23T07:58:13.995Z,-1.40
2018-11-23T08:00:42.121Z,-1.30
2018-11-23T08:03:10.304Z,-1.30
2018-11-23T08:05:38.450Z,-1.20
2018-11-23T08:08:06.706Z,-1.10
2018-11-23T08:10:34.118Z,-0.80
2018-11-23T08:13:02.357Z,-0.80
2018-11-23T08:15:30.474Z,-0.60
2018-11-23T08:17:58.637Z,-0.60
2018-11-23T08:20:26.815Z,-0.50
2018-11-23T08:22:55.023Z,-0.40
2018-11-23T08:25:24.087Z,-0.20
2018-11-23T08:27:53.585Z,0.00
2018-11-23T08:30:23.198Z,0.30
2018-11-23T08:32:51.317Z,0.50
2018-11-23T08:35:19.458Z,0.50
2018-11-23T08:37:47.709Z,0.70
2018-11-23T08:40:18.800Z,0.80
2018-11-23T08:42:47.853Z,0.80
2018-11-23T08:45:20.894Z,0.80
2018-11-23T08:47:49.186Z,0.90
2018-11-23T08:50:20.050Z,0.90
2018-11-23T08:52:48.186Z,1.00
2018-11-23T08:55:17.117Z,1.20
2018-11-23T08:57:45.261Z,1.20
2018-11-23T09:00:17.716Z,1.20
2018-11-23T09:02:46.970Z,1.40
2018-11-23T09:05:15.663Z,1.50
2018-11-23T09:07:44.754Z,1.60
2018-11-23T09:10:15.193Z,1.70
2018-11-23T09:12:44.428Z,1.70
2018-11-23T09:15:13.871Z,1.70
2018-11-23T09:17:42.676Z,1.80
2018-11-23T09:20:11.809Z,1.80
2018-11-23T09:22:39.921Z,2.00
2018-11-23T09:25:10.265Z,2.00
2018-11-23T09:27:38.469Z,2.10
2018-11-23T09:30:10.909Z,2.20
2018-11-23T09:32:39.029Z,2.30
2018-11-23T09:35:07.948Z,2.30
2018-11-23T09:37:36.370Z,2.40
2018-11-23T09:40:06.037Z,2.40
2018-11-23T09:42:34.228Z,2.50
2018-11-23T09:45:02.345Z,2.60
2018-11-23T09:47:30.507Z,2.60
2018-11-23T09:49:58.627Z,2.70
2018-11-23T09:52:26.725Z,2.80
2018-11-23T09:54:54.882Z,2.80
2018-11-23T09:57:23.034Z,2.90
2018-11-23T09:59:51.143Z,3.00
2018-11-23T10:02:19.238Z,3.10
2018-11-23T10:04:47.366Z,3.10
2018-11-23T10:07:15.451Z,3.30
2018-11-23T10:09:43.620Z,3.50
2018-11-23T10:12:11.700Z,3.60
2018-11-23T10:14:39.984Z,3.80
2018-11-23T10:18:11.936Z,4.50
2018-11-23T10:20:40.091Z,6.40
2018-11-23T10:23:08.227Z,7.30
2018-11-23T10:25:36.810Z,7.90
2018-11-23T10:28:05.005Z,8.10
2018-11-23T10:30:34.588Z,9.00
2018-11-23T10:33:04.078Z,9.80
2018-11-23T10:35:32.266Z,10.60
2018-11-23T10:38:01.777Z,10.80
2018-11-23T10:40:31.398Z,10.40
2018-11-23T10:42:59.536Z,10.80
2018-11-23T10:45:29.071Z,11.30
2018-11-23T10:47:58.096Z,11.30
2018-11-23T10:50:27.889Z,10.60
2018-11-23T10:52:56.031Z,9.90
2018-11-23T10:55:25.793Z,10.40
2018-11-23T10:57:54.251Z,10.10
2018-11-23T11:00:27.935Z,9.50
2018-11-23T11:03:01.512Z,9.20
2018-11-23T11:05:31.302Z,8.80
2018-11-23T11:08:00.860Z,8.00
2018-11-23T11:10:29.118Z,7.00
2018-11-23T11:12:57.326Z,6.50
2018-11-23T11:15:25.503Z,6.20
2018-11-23T11:17:53.648Z,6.20
2018-11-23T11:20:21.922Z,6.30
2018-11-23T11:22:50.277Z,6.30
2018-11-23T11:25:18.388Z,6.20
2018-11-23T11:27:46.490Z,6.10
2018-11-23T11:30:16.093Z,5.90
2018-11-23T11:32:44.881Z,5.70
2018-11-23T11:35:13.464Z,5.60
2018-11-23T11:37:42.126Z,5.70
2018-11-23T11:40:12.369Z,5.60
2018-11-23T11:42:41.062Z,5.50
2018-11-23T11:45:11.077Z,5.50
2018-11-23T11:47:39.286Z,5.50
2018-11-23T11:50:09.030Z,5.50
2018-11-23T11:52:38.395Z,5.50
2018-11-23T11:55:07.990Z,5.50
2018-11-23T11:57:36.182Z,5.50
2018-11-23T12:00:04.846Z,5.50
2018-11-23T12:02:33.111Z,5.50
2018-11-23T12:05:01.239Z,5.40
2018-11-23T12:08:16.574Z,5.40
2018-11-23T12:10:44.904Z,5.50
2018-11-23T12:13:13.020Z,5.50
2018-11-23T12:15:41.166Z,5.50
2018-11-23T12:18:09.389Z,5.50
2018-11-23T12:20:37.743Z,5.50
2018-11-23T12:23:05.952Z,5.60
2018-11-23T12:25:34.741Z,5.60
2018-11-23T12:28:05.548Z,5.60
2018-11-23T12:30:33.813Z,5.60
2018-11-23T12:33:02.094Z,5.60
2018-11-23T12:35:31.026Z,5.70
2018-11-23T12:37:59.199Z,5.60
2018-11-23T12:40:27.290Z,5.70
2018-11-23T12:42:55.410Z,5.70
2018-11-23T12:45:23.905Z,5.80
2018-11-23T12:47:52.183Z,5.80
2018-11-23T12:50:21.781Z,5.80
2018-11-23T12:52:50.036Z,5.80
2018-11-23T12:55:18.874Z,5.80
2018-11-23T12:57:47.062Z,5.80
2018-11-23T13:00:19.362Z,5.80
2018-11-23T13:02:48.896Z,5.80
2018-11-23T13:05:17.178Z,5.80
2018-11-23T13:07:45.405Z,5.80
2018-11-23T13:10:13.505Z,5.90
2018-11-23T13:12:41.618Z,5.80
2018-11-23T13:15:09.784Z,5.90
2018-11-23T13:17:37.885Z,5.80
2018-11-23T13:20:08.521Z,5.80
2018-11-23T13:22:36.821Z,5.80
2018-11-23T13:25:07.472Z,5.80
2018-11-23T13:27:35.544Z,5.80
2018-11-23T13:30:03.778Z,5.80
2018-11-23T13:32:31.870Z,5.80
2018-11-23T13:35:00.063Z,5.70
2018-11-23T13:37:28.117Z,5.70
2018-11-23T13:39:56.202Z,5.70
2018-11-23T13:42:24.313Z,5.70
2018-11-23T13:44:52.380Z,5.70
2018-11-23T13:47:20.547Z,5.70
2018-11-23T13:49:48.718Z,5.60
2018-11-23T13:52:16.765Z,5.60
2018-11-23T13:54:44.864Z,5.50
2018-11-23T13:57:12.937Z,5.40
2018-11-23T13:59:41.127Z,5.40
2018-11-23T14:02:09.206Z,5.40
2018-11-23T14:04:37.283Z,5.30
2018-11-23T14:07:05.365Z,5.30
2018-11-23T14:09:33.472Z,5.20
2018-11-23T14:12:01.531Z,5.20
2018-11-23T14:14:29.614Z,5.10
2018-11-23T14:16:57.722Z,5.10
2018-11-23T14:19:25.825Z,5.10
2018-11-23T14:21:54.978Z,5.00
2018-11-23T14:24:23.137Z,5.00
2018-11-23T14:26:51.286Z,4.90
2018-11-23T14:29:19.394Z,4.90
2018-11-23T14:31:47.497Z,4.90
2018-11-23T14:34:15.754Z,4.80
2018-11-23T14:36:43.882Z,4.80
2018-11-23T14:39:13.059Z,4.80
2018-11-23T14:41:40.129Z,4.70
2018-11-23T14:44:08.193Z,4.60
2018-11-23T14:46:36.309Z,4.60
2018-11-23T14:49:04.430Z,4.50
2018-11-23T14:51:32.537Z,4.40
2018-11-23T14:54:00.781Z,4.40
2018-11-23T14:56:28.906Z,4.30
2018-11-23T14:58:57.053Z,4.20
2018-11-23T15:01:25.730Z,4.20
2018-11-23T15:03:53.982Z,4.00
2018-11-23T15:06:22.108Z,3.90
2018-11-23T15:08:50.309Z,3.90
2018-11-23T15:11:18.517Z,3.80
2018-11-23T15:13:46.693Z,3.70
2018-11-23T15:16:14.838Z,3.70
2018-11-23T15:18:43.056Z,3.60
2018-11-23T15:21:11.355Z,3.60
2018-11-23T15:23:39.514Z,3.50
2018-11-23T15:26:07.620Z,3.40
2018-11-23T15:28:35.758Z,3.40
2018-11-23T15:31:03.882Z,3.30
2018-11-23T15:33:32.027Z,3.20
2018-11-23T15:36:00.152Z,3.20
2018-11-23T15:38:28.234Z,3.10
2018-11-23T15:40:56.352Z,3.10
2018-11-23T15:43:24.458Z,3.00
2018-11-23T15:45:52.589Z,2.90
2018-11-23T15:48:20.690Z,2.90
2018-11-23T15:50:48.864Z,2.90
2018-11-23T15:53:17.148Z,2.90
2018-11-23T15:55:45.335Z,2.80
2018-11-23T15:58:14.893Z,2.80
2018-11-23T16:00:44.501Z,2.80
2018-11-23T16:03:13.437Z,2.70
2018-11-23T16:05:41.544Z,2.70
2018-11-23T16:08:13.162Z,2.70
2018-11-23T16:10:41.265Z,2.70
2018-11-23T16:13:11.501Z,2.70
2018-11-23T16:15:38.611Z,2.70
2018-11-23T16:18:06.949Z,2.70
2018-11-23T16:20:37.432Z,2.70
2018-11-23T16:23:07.360Z,2.70
2018-11-23T16:25:35.598Z,2.70
2018-11-23T16:28:05.946Z,2.80
2018-11-23T16:30:35.478Z,2.80
2018-11-23T16:33:04.853Z,2.80
2018-11-23T16:35:34.487Z,2.70
2018-11-23T16:38:04.124Z,2.70
2018-11-23T16:40:33.554Z,2.70
2018-11-23T16:43:02.296Z,2.80
2018-11-23T16:45:31.769Z,2.70
2018-11-23T16:48:00.972Z,2.70
2018-11-23T16:50:29.368Z,2.70
2018-11-23T16:52:57.834Z,2.80
2018-11-23T16:55:26.316Z,2.80
2018-11-23T16:58:13.028Z,2.80
2018-11-23T17:00:42.944Z,2.80
2018-11-23T17:03:12.960Z,2.80
2018-11-23T17:05:42.569Z,2.80
2018-11-23T17:08:10.953Z,2.80
2018-11-23T17:10:39.065Z,2.80
2018-11-23T17:13:07.235Z,2.80
2018-11-23T17:15:35.334Z,2.80
2018-11-23T17:18:03.476Z,2.80
2018-11-23T17:20:32.801Z,2.80
2018-11-23T17:23:01.930Z,2.80
2018-11-23T17:25:30.725Z,2.80
2018-11-23T17:28:00.124Z,2.80
2018-11-23T17:30:29.559Z,2.80
2018-11-23T17:32:57.720Z,2.80
2018-11-23T17:35:26.173Z,2.90
2018-11-23T17:37:54.350Z,2.90
2018-11-23T17:40:23.676Z,2.80
2018-11-23T17:42:51.904Z,2.80
2018-11-23T17:45:21.774Z,2.80
2018-11-23T17:47:50.666Z,2.90
2018-11-23T17:50:20.272Z,2.90
2018-11-23T17:52:49.041Z,2.90
2018-11-23T17:55:17.162Z,2.90
2018-11-23T17:57:45.811Z,2.80
2018-11-23T18:00:15.506Z,2.90
2018-11-23T18:02:44.363Z,2.80
2018-11-23T18:05:13.806Z,2.90
2018-11-23T18:07:41.937Z,2.90
2018-11-23T18:10:13.216Z,2.90
2018-11-23T18:12:41.393Z,3.00
2018-11-23T18:15:11.429Z,3.00
2018-11-23T18:17:39.531Z,3.00
2018-11-23T18:20:12.071Z,3.00
2018-11-23T18:22:40.580Z,2.90
2018-11-23T18:25:11.313Z,2.90
2018-11-23T18:27:39.566Z,3.00
2018-11-23T18:30:09.431Z,3.00
2018-11-23T18:32:37.605Z,2.90
2018-11-23T18:35:07.119Z,2.90
2018-11-23T18:37:35.377Z,3.00
2018-11-23T18:40:09.188Z,3.00
2018-11-23T18:42:37.280Z,3.00
2018-11-23T18:45:08.901Z,3.10
2018-11-23T18:47:37.130Z,3.00
2018-11-23T18:50:07.341Z,3.10
2018-11-23T18:52:35.497Z,3.10
2018-11-23T18:55:03.597Z,3.10
2018-11-23T18:57:32.042Z,3.10
2018-11-23T19:00:00.153Z,3.10
2018-11-23T19:02:28.230Z,3.20
2018-11-23T19:04:56.333Z,3.10
2018-11-23T19:07:24.494Z,3.10
2018-11-23T19:09:52.590Z,3.10
2018-11-23T19:12:20.750Z,3.20
2018-11-23T19:14:48.829Z,3.20
2018-11-23T19:17:17.021Z,3.20
2018-11-23T19:19:45.094Z,3.20
2018-11-23T19:22:13.358Z,3.20
2018-11-23T19:24:41.443Z,3.20
2018-11-23T19:27:09.686Z,3.20
2018-11-23T19:29:38.231Z,3.30
2018-11-23T19:32:06.363Z,3.30
2018-11-23T19:34:34.454Z,3.30
2018-11-23T19:37:03.653Z,3.30
2018-11-23T19:39:31.783Z,3.30
2018-11-23T19:41:59.877Z,3.30
2018-11-23T19:44:28.000Z,3.30
2018-11-23T19:46:56.093Z,3.30
2018-11-23T19:49:24.277Z,3.30
2018-11-23T19:51:52.345Z,3.40
2018-11-23T19:54:20.485Z,3.30
2018-11-23T19:56:48.573Z,3.30
2018-11-23T19:59:16.698Z,3.30
2018-11-23T20:01:44.845Z,3.30
2018-11-23T20:04:13.095Z,3.30
2018-11-23T20:06:42.823Z,3.30
2018-11-23T20:09:09.950Z,3.30
2018-11-23T20:11:38.298Z,3.30
2018-11-23T20:14:06.729Z,3.30
2018-11-23T20:16:34.854Z,3.30
2018-11-23T20:19:02.961Z,3.30
2018-11-23T20:21:31.211Z,3.30
2018-11-23T20:23:59.304Z,3.40
2018-11-23T20:26:27.350Z,3.40
2018-11-23T20:28:55.422Z,3.40
2018-11-23T20:31:23.607Z,3.40
2018-11-23T20:33:51.711Z,3.40
2018-11-23T20:36:19.861Z,3.40
2018-11-23T20:38:48.022Z,3.40
2018-11-23T20:41:16.122Z,3.30
2018-11-23T20:43:44.206Z,3.40
2018-11-23T20:46:12.310Z,3.30
2018-11-23T20:48:40.460Z,3.40
2018-11-23T20:51:08.589Z,3.30
2018-11-23T20:53:36.674Z,3.30
2018-11-23T20:56:04.773Z,3.40
2018-11-23T20:58:33.142Z,3.40
2018-11-23T21:01:01.375Z,3.40
2018-11-23T21:03:29.597Z,3.40
2018-11-23T21:05:57.723Z,3.40
2018-11-23T21:08:25.919Z,3.40
2018-11-23T21:10:54.054Z,3.40
2018-11-23T21:13:22.217Z,3.40
2018-11-23T21:15:50.485Z,3.40
2018-11-23T21:18:18.570Z,3.40
2018-11-23T21:20:46.809Z,3.40
2018-11-23T21:23:15.057Z,3.40
2018-11-23T21:25:43.188Z,3.40
2018-11-23T21:28:12.001Z,3.40
2018-11-23T21:30:40.161Z,3.40
2018-11-23T21:33:08.292Z,3.40
2018-11-23T21:35:36.383Z,3.40
2018-11-23T21:38:04.743Z,3.40
2018-11-23T21:40:32.960Z,3.40
2018-11-23T21:43:01.262Z,3.40
2018-11-23T21:45:29.407Z,3.40
2018-11-23T21:47:57.580Z,3.40
2018-11-23T21:50:25.933Z,3.40
2018-11-23T21:52:53.838Z,3.40
2018-11-23T21:55:22.965Z,3.40
2018-11-23T21:57:51.787Z,3.40
2018-11-23T22:00:19.908Z,3.40
2018-11-23T22:02:48.024Z,3.40
2018-11-23T22:05:16.231Z,3.40
2018-11-23T22:07:44.321Z,3.40
2018-11-23T22:10:13.595Z,3.40
2018-11-23T22:12:41.764Z,3.40
2018-11-23T22:15:11.509Z,3.50
2018-11-23T22:17:39.636Z,3.50
2018-11-23T22:20:12.928Z,3.50
2018-11-23T22:22:41.150Z,3.50
2018-11-23T22:25:10.682Z,3.50
2018-11-23T22:27:38.837Z,3.50
2018-11-23T22:30:16.602Z,3.50
2018-11-23T22:32:44.875Z,3.50
2018-11-23T22:35:13.262Z,3.60
2018-11-23T22:37:41.375Z,3.50
2018-11-23T22:40:11.847Z,3.60
2018-11-23T22:42:40.319Z,3.50
2018-11-23T22:45:09.938Z,3.50
2018-11-23T22:47:38.045Z,3.50
2018-11-23T22:50:08.630Z,3.50
2018-11-23T22:52:36.802Z,3.50
2018-11-23T22:55:05.579Z,3.60
2018-11-23T22:57:33.741Z,3.50
2018-11-23T23:00:01.855Z,3.60
2018-11-23T23:02:29.970Z,3.60
2018-11-23T23:04:58.178Z,3.50
2018-11-23T23:07:26.258Z,3.50
2018-11-23T23:09:54.390Z,3.50
2018-11-23T23:12:22.534Z,3.50
2018-11-23T23:14:50.683Z,3.50
2018-11-23T23:17:18.769Z,3.60
2018-11-23T23:19:46.940Z,3.60
2018-11-23T23:22:15.087Z,3.60
2018-11-23T23:24:43.226Z,3.60
2018-11-23T23:27:11.321Z,3.60
2018-11-23T23:29:39.420Z,3.60
2018-11-23T23:32:07.529Z,3.60
2018-11-23T23:34:35.693Z,3.60
2018-11-23T23:37:03.777Z,3.60
2018-11-23T23:39:32.001Z,3.60
2018-11-23T23:42:00.091Z,3.60
2018-11-23T23:44:28.185Z,3.70
2018-11-23T23:46:56.366Z,3.60
2018-11-23T23:49:24.484Z,3.60
2018-11-23T23:51:52.583Z,3.60
2018-11-23T23:54:20.724Z,3.60
2018-11-23T23:56:48.794Z,3.60
2018-11-23T23:59:16.860Z,3.60
